Etusivu
METAR-TAF:

METAR-TAF

Lentoasemat :

Syltin lentoasema

Westerland, Saksa

Leveyspiiri: 54-55N, Pituuspiiri: 008-21E, korkeus merenpinnasta: 16 m

Tämänhetkinen sää

Tämä raportti tehtiin 30 minuuttia sitten, kello 07.20 UTC
Tuuli 10 kn lounaasta
Lämpötila 15°C
Kosteus 94%
Ilmanpaine 1009 hPa
Näkyvyys: 7000 m

METAR: EDXW 140720Z AUTO 22010KT 7000 // SCT009/// BKN014/// OVC039/// 15/14 Q1009

Aika: 09:50 (07:50 UTC)

Sääennuste

Tämä raportti tehtiin 14 tuntia ja 50 minuuttia sitten, kello 17.00 UTC
Ennuste voimassa 13. päivästä klo 18 UTC - 13. päivään klo 21 UTC
Tuuli 10 kn lounaasta
Näkyvyys 10 km tai enemmän
Hajanaisia pilviä 1300 ft:n korkeudessa
Hajonneita pilviä 2000 ft:n korkeudessa
Todennäköisyys 30% :
Ajoittain
13. päivästä klo 18 UTC - 13. päivään klo 21 UTC
Hajonneita pilviä 900 ft:n korkeudessa

TAF: EDXW 131700Z 1318/1321 22010KT 9999 SCT013 BKN020 PROB30 TEMPO 1318/1321 BKN009

Säähavainnot ja -ennusteet yli 4000 lentoasemalta (METAR- ja TAF-raportit).

Käytössä olevat sääasemat on merkitty karttaan keltaisilla ja punaisilla pisteillä.

Aseta hiiri pisteen päälle nähdäksesi sääaseman nimen.

Klikkaa sitten nähdäksesi säähavainnot ja -ennusteet.

Kartan vaihtaminen: klikkaa mustalla rastilla varustettuja vihreitä pisteitä, niin voit zoomata sisään; viivalla varustettua vihreää pistettä, niin voit zoomata ulos tai vihreitä nuolia, niin pääset viereisille kartoille.


METAR-TAF: